sensor_id;sensor_type;location;lat;lon;timestamp;temperature;humidity
64858;SHT30;51335;51.148;6.950;2022-10-13T00:00:19;9.40;99.99
64858;SHT30;51335;51.148;6.950;2022-10-13T00:00:50;9.40;99.99
64858;SHT30;51335;51.148;6.950;2022-10-13T00:01:27;9.39;99.99
64858;SHT30;51335;51.148;6.950;2022-10-13T00:01:57;9.39;99.99
64858;SHT30;51335;51.148;6.950;2022-10-13T00:02:27;9.40;99.99
64858;SHT30;51335;51.148;6.950;2022-10-13T00:02:59;9.39;99.99
64858;SHT30;51335;51.148;6.950;2022-10-13T00:03:29;9.36;99.99
64858;SHT30;51335;51.148;6.950;2022-10-13T00:04:00;9.35;99.99
64858;SHT30;51335;51.148;6.950;2022-10-13T00:04:30;9.36;99.99
64858;SHT30;51335;51.148;6.950;2022-10-13T00:05:00;9.38;99.99
64858;SHT30;51335;51.148;6.950;2022-10-13T00:05:31;9.38;99.99
64858;SHT30;51335;51.148;6.950;2022-10-13T00:06:05;9.39;99.99
64858;SHT30;51335;51.148;6.950;2022-10-13T00:06:35;9.40;99.99
64858;SHT30;51335;51.148;6.950;2022-10-13T00:07:05;9.42;99.99
64858;SHT30;51335;51.148;6.950;2022-10-13T00:07:35;9.43;99.99
64858;SHT30;51335;51.148;6.950;2022-10-13T00:08:06;9.40;99.99
64858;SHT30;51335;51.148;6.950;2022-10-13T00:08:37;9.39;99.99
64858;SHT30;51335;51.148;6.950;2022-10-13T00:09:07;9.40;99.99
64858;SHT30;51335;51.148;6.950;2022-10-13T00:09:38;9.40;99.99
64858;SHT30;51335;51.148;6.950;2022-10-13T00:10:08;9.39;99.99
64858;SHT30;51335;51.148;6.950;2022-10-13T00:10:39;9.39;99.99
64858;SHT30;51335;51.148;6.950;2022-10-13T00:11:40;9.46;99.99
64858;SHT30;51335;51.148;6.950;2022-10-13T00:12:10;9.43;99.99
64858;SHT30;51335;51.148;6.950;2022-10-13T00:12:40;9.44;99.99
64858;SHT30;51335;51.148;6.950;2022-10-13T00:13:11;9.44;99.99
64858;SHT30;51335;51.148;6.950;2022-10-13T00:13:42;9.43;99.99
64858;SHT30;51335;51.148;6.950;2022-10-13T00:14:13;9.42;99.99
64858;SHT30;51335;51.148;6.950;2022-10-13T00:14:43;9.44;99.99
64858;SHT30;51335;51.148;6.950;2022-10-13T00:15:13;9.49;99.99
64858;SHT30;51335;51.148;6.950;2022-10-13T00:15:45;9.50;99.99
64858;SHT30;51335;51.148;6.950;2022-10-13T00:16:18;9.50;99.99
64858;SHT30;51335;51.148;6.950;2022-10-13T00:16:48;9.49;99.99
64858;SHT30;51335;51.148;6.950;2022-10-13T00:17:19;9.50;99.99
64858;SHT30;51335;51.148;6.950;2022-10-13T00:17:49;9.52;99.99
64858;SHT30;51335;51.148;6.950;2022-10-13T00:18:19;9.54;99.99
64858;SHT30;51335;51.148;6.950;2022-10-13T00:18:49;9.54;99.99
64858;SHT30;51335;51.148;6.950;2022-10-13T00:19:20;9.52;99.99
64858;SHT30;51335;51.148;6.950;2022-10-13T00:19:50;9.56;99.99
64858;SHT30;51335;51.148;6.950;2022-10-13T00:20:20;9.53;99.99
64858;SHT30;51335;51.148;6.950;2022-10-13T00:20:50;9.53;99.87
64858;SHT30;51335;51.148;6.950;2022-10-13T00:21:23;9.49;99.87
64858;SHT30;51335;51.148;6.950;2022-10-13T00:21:53;9.50;99.83
64858;SHT30;51335;51.148;6.950;2022-10-13T00:22:26;9.53;99.88
64858;SHT30;51335;51.148;6.950;2022-10-13T00:22:56;9.49;99.83
64858;SHT30;51335;51.148;6.950;2022-10-13T00:23:26;9.52;99.80
64858;SHT30;51335;51.148;6.950;2022-10-13T00:23:57;9.50;99.73
64858;SHT30;51335;51.148;6.950;2022-10-13T00:24:27;9.49;99.74
64858;SHT30;51335;51.148;6.950;2022-10-13T00:24:57;9.46;99.72
64858;SHT30;51335;51.148;6.950;2022-10-13T00:25:28;9.46;99.71
64858;SHT30;51335;51.148;6.950;2022-10-13T00:26:01;9.43;99.71
64858;SHT30;51335;51.148;6.950;2022-10-13T00:26:32;9.43;99.73
64858;SHT30;51335;51.148;6.950;2022-10-13T00:27:02;9.42;99.73
64858;SHT30;51335;51.148;6.950;2022-10-13T00:27:32;9.40;99.75
64858;SHT30;51335;51.148;6.950;2022-10-13T00:28:02;9.40;99.80
64858;SHT30;51335;51.148;6.950;2022-10-13T00:28:33;9.40;99.82
64858;SHT30;51335;51.148;6.950;2022-10-13T00:29:03;9.39;99.86
64858;SHT30;51335;51.148;6.950;2022-10-13T00:29:33;9.39;99.91
64858;SHT30;51335;51.148;6.950;2022-10-13T00:30:04;9.44;99.88
64858;SHT30;51335;51.148;6.950;2022-10-13T00:30:36;9.44;99.89
64858;SHT30;51335;51.148;6.950;2022-10-13T00:31:28;9.43;99.91
64858;SHT30;51335;51.148;6.950;2022-10-13T00:31:58;9.44;99.99
64858;SHT30;51335;51.148;6.950;2022-10-13T00:32:29;9.43;99.96
64858;SHT30;51335;51.148;6.950;2022-10-13T00:32:59;9.43;99.94
64858;SHT30;51335;51.148;6.950;2022-10-13T00:33:29;9.43;99.85
64858;SHT30;51335;51.148;6.950;2022-10-13T00:34:01;9.43;99.79
64858;SHT30;51335;51.148;6.950;2022-10-13T00:34:31;9.43;99.74
64858;SHT30;51335;51.148;6.950;2022-10-13T00:35:02;9.39;99.72
64858;SHT30;51335;51.148;6.950;2022-10-13T00:35:32;9.40;99.74
64858;SHT30;51335;51.148;6.950;2022-10-13T00:36:05;9.40;99.80
64858;SHT30;51335;51.148;6.950;2022-10-13T00:36:35;9.39;99.76
64858;SHT30;51335;51.148;6.950;2022-10-13T00:37:05;9.38;99.82
64858;SHT30;51335;51.148;6.950;2022-10-13T00:37:35;9.38;99.78
64858;SHT30;51335;51.148;6.950;2022-10-13T00:38:06;9.39;99.80
64858;SHT30;51335;51.148;6.950;2022-10-13T00:38:36;9.42;99.94
64858;SHT30;51335;51.148;6.950;2022-10-13T00:39:07;9.39;99.89
64858;SHT30;51335;51.148;6.950;2022-10-13T00:39:37;9.38;99.84
64858;SHT30;51335;51.148;6.950;2022-10-13T00:40:08;9.36;99.84
64858;SHT30;51335;51.148;6.950;2022-10-13T00:40:51;9.36;99.85
64858;SHT30;51335;51.148;6.950;2022-10-13T00:41:21;9.39;99.70
64858;SHT30;51335;51.148;6.950;2022-10-13T00:41:52;9.39;99.72
64858;SHT30;51335;51.148;6.950;2022-10-13T00:42:22;9.40;99.81
64858;SHT30;51335;51.148;6.950;2022-10-13T00:42:52;9.42;99.76
64858;SHT30;51335;51.148;6.950;2022-10-13T00:43:26;9.49;99.87
64858;SHT30;51335;51.148;6.950;2022-10-13T00:44:04;9.52;99.72
64858;SHT30;51335;51.148;6.950;2022-10-13T00:45:00;9.47;99.69
64858;SHT30;51335;51.148;6.950;2022-10-13T00:45:31;9.44;99.63
64858;SHT30;51335;51.148;6.950;2022-10-13T00:46:01;9.42;99.62
64858;SHT30;51335;51.148;6.950;2022-10-13T00:46:34;9.46;99.71
64858;SHT30;51335;51.148;6.950;2022-10-13T00:47:04;9.47;99.65
64858;SHT30;51335;51.148;6.950;2022-10-13T00:47:41;9.50;99.79
64858;SHT30;51335;51.148;6.950;2022-10-13T00:48:12;9.49;99.76
64858;SHT30;51335;51.148;6.950;2022-10-13T00:48:43;9.49;99.75
64858;SHT30;51335;51.148;6.950;2022-10-13T00:49:14;9.47;99.91
64858;SHT30;51335;51.148;6.950;2022-10-13T00:49:44;9.50;99.83
64858;SHT30;51335;51.148;6.950;2022-10-13T00:50:17;9.52;99.87
64858;SHT30;51335;51.148;6.950;2022-10-13T00:50:48;9.52;99.85
64858;SHT30;51335;51.148;6.950;2022-10-13T00:51:21;9.50;99.81
64858;SHT30;51335;51.148;6.950;2022-10-13T00:51:53;9.53;99.75
64858;SHT30;51335;51.148;6.950;2022-10-13T00:52:24;9.49;99.71
64858;SHT30;51335;51.148;6.950;2022-10-13T00:52:56;9.47;99.73
64858;SHT30;51335;51.148;6.950;2022-10-13T00:53:30;9.43;99.85
64858;SHT30;51335;51.148;6.950;2022-10-13T00:54:03;9.49;99.90
64858;SHT30;51335;51.148;6.950;2022-10-13T00:54:34;9.47;99.84
64858;SHT30;51335;51.148;6.950;2022-10-13T00:55:06;9.49;99.86
64858;SHT30;51335;51.148;6.950;2022-10-13T00:55:38;9.50;99.86
64858;SHT30;51335;51.148;6.950;2022-10-13T00:56:10;9.50;99.95
64858;SHT30;51335;51.148;6.950;2022-10-13T00:56:40;9.50;99.99
64858;SHT30;51335;51.148;6.950;2022-10-13T00:57:11;9.46;99.99
64858;SHT30;51335;51.148;6.950;2022-10-13T00:57:43;9.47;99.99
64858;SHT30;51335;51.148;6.950;2022-10-13T00:58:16;9.52;99.99
64858;SHT30;51335;51.148;6.950;2022-10-13T00:58:48;9.52;99.95
64858;SHT30;51335;51.148;6.950;2022-10-13T00:59:22;9.52;99.92
64858;SHT30;51335;51.148;6.950;2022-10-13T00:59:53;9.52;99.92
64858;SHT30;51335;51.148;6.950;2022-10-13T01:00:24;9.50;99.92
64858;SHT30;51335;51.148;6.950;2022-10-13T01:00:54;9.54;99.90
64858;SHT30;51335;51.148;6.950;2022-10-13T01:01:24;9.59;99.85
64858;SHT30;51335;51.148;6.950;2022-10-13T01:01:56;9.66;99.79
64858;SHT30;51335;51.148;6.950;2022-10-13T01:02:31;9.66;99.70
64858;SHT30;51335;51.148;6.950;2022-10-13T01:03:01;9.66;99.69
64858;SHT30;51335;51.148;6.950;2022-10-13T01:03:32;9.71;99.63
64858;SHT30;51335;51.148;6.950;2022-10-13T01:04:03;9.70;99.51
64858;SHT30;51335;51.148;6.950;2022-10-13T01:04:37;9.71;99.44
64858;SHT30;51335;51.148;6.950;2022-10-13T01:05:08;9.71;99.35
64858;SHT30;51335;51.148;6.950;2022-10-13T01:05:40;9.70;99.31
64858;SHT30;51335;51.148;6.950;2022-10-13T01:06:11;9.67;99.33
64858;SHT30;51335;51.148;6.950;2022-10-13T01:06:42;9.66;99.38
64858;SHT30;51335;51.148;6.950;2022-10-13T01:07:15;9.63;99.39
64858;SHT30;51335;51.148;6.950;2022-10-13T01:07:48;9.61;99.37
64858;SHT30;51335;51.148;6.950;2022-10-13T01:08:19;9.60;99.47
64858;SHT30;51335;51.148;6.950;2022-10-13T01:08:50;9.59;99.46
64858;SHT30;51335;51.148;6.950;2022-10-13T01:09:20;9.60;99.45
64858;SHT30;51335;51.148;6.950;2022-10-13T01:09:51;9.60;99.42
64858;SHT30;51335;51.148;6.950;2022-10-13T01:11:34;9.61;99.50
64858;SHT30;51335;51.148;6.950;2022-10-13T01:14:33;9.69;99.46
64858;SHT30;51335;51.148;6.950;2022-10-13T01:15:51;9.70;99.36
64858;SHT30;51335;51.148;6.950;2022-10-13T01:17:22;9.73;99.23
64858;SHT30;51335;51.148;6.950;2022-10-13T01:21:46;9.73;99.26
64858;SHT30;51335;51.148;6.950;2022-10-13T01:27:37;9.76;98.97
64858;SHT30;51335;51.148;6.950;2022-10-13T01:30:20;9.77;98.93
64858;SHT30;51335;51.148;6.950;2022-10-13T01:31:06;9.73;98.89
64858;SHT30;51335;51.148;6.950;2022-10-13T01:31:59;9.71;99.01
64858;SHT30;51335;51.148;6.950;2022-10-13T01:32:53;9.70;99.11
64858;SHT30;51335;51.148;6.950;2022-10-13T01:34:13;9.74;99.12
64858;SHT30;51335;51.148;6.950;2022-10-13T01:38:07;9.83;98.91
64858;SHT30;51335;51.148;6.950;2022-10-13T01:39:34;9.84;98.87
64858;SHT30;51335;51.148;6.950;2022-10-13T01:40:29;9.90;98.83
64858;SHT30;51335;51.148;6.950;2022-10-13T01:41:03;9.86;98.80
64858;SHT30;51335;51.148;6.950;2022-10-13T01:41:41;9.83;98.80
64858;SHT30;51335;51.148;6.950;2022-10-13T01:42:29;9.84;98.81
64858;SHT30;51335;51.148;6.950;2022-10-13T01:43:09;9.86;98.89
64858;SHT30;51335;51.148;6.950;2022-10-13T01:44:05;9.87;98.77
64858;SHT30;51335;51.148;6.950;2022-10-13T01:44:40;9.88;98.73
64858;SHT30;51335;51.148;6.950;2022-10-13T01:45:12;9.84;98.66
64858;SHT30;51335;51.148;6.950;2022-10-13T01:45:54;9.80;98.68
64858;SHT30;51335;51.148;6.950;2022-10-13T01:46:29;9.83;98.80
64858;SHT30;51335;51.148;6.950;2022-10-13T01:47:01;9.80;98.81
64858;SHT30;51335;51.148;6.950;2022-10-13T01:47:33;9.77;98.82
64858;SHT30;51335;51.148;6.950;2022-10-13T01:48:04;9.80;98.86
64858;SHT30;51335;51.148;6.950;2022-10-13T01:48:37;9.84;98.87
64858;SHT30;51335;51.148;6.950;2022-10-13T01:49:13;9.84;98.86
64858;SHT30;51335;51.148;6.950;2022-10-13T01:49:45;9.81;98.83
64858;SHT30;51335;51.148;6.950;2022-10-13T01:50:16;9.84;98.87
64858;SHT30;51335;51.148;6.950;2022-10-13T01:50:47;9.83;98.84
64858;SHT30;51335;51.148;6.950;2022-10-13T01:51:18;9.81;98.92
64858;SHT30;51335;51.148;6.950;2022-10-13T01:51:50;9.80;98.95
64858;SHT30;51335;51.148;6.950;2022-10-13T01:52:23;9.87;99.00
64858;SHT30;51335;51.148;6.950;2022-10-13T01:52:58;9.84;98.95
64858;SHT30;51335;51.148;6.950;2022-10-13T01:53:29;9.83;98.89
64858;SHT30;51335;51.148;6.950;2022-10-13T01:53:59;9.81;98.93
64858;SHT30;51335;51.148;6.950;2022-10-13T01:54:31;9.80;98.77
64858;SHT30;51335;51.148;6.950;2022-10-13T01:55:09;9.80;98.86
64858;SHT30;51335;51.148;6.950;2022-10-13T01:55:50;9.81;98.81
64858;SHT30;51335;51.148;6.950;2022-10-13T01:56:21;9.81;98.84
64858;SHT30;51335;51.148;6.950;2022-10-13T01:56:54;9.83;98.84
64858;SHT30;51335;51.148;6.950;2022-10-13T01:57:31;9.87;98.82
64858;SHT30;51335;51.148;6.950;2022-10-13T01:58:02;9.86;98.70
64858;SHT30;51335;51.148;6.950;2022-10-13T01:58:34;9.86;98.67
64858;SHT30;51335;51.148;6.950;2022-10-13T01:59:11;9.86;98.61
64858;SHT30;51335;51.148;6.950;2022-10-13T01:59:43;9.83;98.60
64858;SHT30;51335;51.148;6.950;2022-10-13T02:00:15;9.83;98.60
64858;SHT30;51335;51.148;6.950;2022-10-13T02:01:05;9.81;98.65
64858;SHT30;51335;51.148;6.950;2022-10-13T02:03:23;9.74;98.84
64858;SHT30;51335;51.148;6.950;2022-10-13T02:04:57;9.83;98.99
64858;SHT30;51335;51.148;6.950;2022-10-13T02:05:41;9.86;98.98
64858;SHT30;51335;51.148;6.950;2022-10-13T02:06:34;9.88;98.92
64858;SHT30;51335;51.148;6.950;2022-10-13T02:07:45;9.91;99.06
64858;SHT30;51335;51.148;6.950;2022-10-13T02:10:58;9.93;99.08
64858;SHT30;51335;51.148;6.950;2022-10-13T02:11:30;9.97;99.03
64858;SHT30;51335;51.148;6.950;2022-10-13T02:12:06;9.97;99.00
64858;SHT30;51335;51.148;6.950;2022-10-13T02:12:40;10.04;98.89
64858;SHT30;51335;51.148;6.950;2022-10-13T02:13:13;10.02;98.78
64858;SHT30;51335;51.148;6.950;2022-10-13T02:14:23;10.07;98.53
64858;SHT30;51335;51.148;6.950;2022-10-13T02:14:56;10.07;98.47
64858;SHT30;51335;51.148;6.950;2022-10-13T02:15:41;10.05;98.46
64858;SHT30;51335;51.148;6.950;2022-10-13T02:16:14;10.04;98.51
64858;SHT30;51335;51.148;6.950;2022-10-13T02:16:45;10.04;98.50
64858;SHT30;51335;51.148;6.950;2022-10-13T02:17:18;10.01;98.50
64858;SHT30;51335;51.148;6.950;2022-10-13T02:17:50;10.08;98.55
64858;SHT30;51335;51.148;6.950;2022-10-13T02:18:25;10.04;98.49
64858;SHT30;51335;51.148;6.950;2022-10-13T02:18:56;10.07;98.53
64858;SHT30;51335;51.148;6.950;2022-10-13T02:19:28;10.10;98.53
64858;SHT30;51335;51.148;6.950;2022-10-13T02:19:58;10.10;98.50
64858;SHT30;51335;51.148;6.950;2022-10-13T02:20:29;10.08;98.44
64858;SHT30;51335;51.148;6.950;2022-10-13T02:21:01;10.11;98.50
64858;SHT30;51335;51.148;6.950;2022-10-13T02:21:32;10.08;98.43
64858;SHT30;51335;51.148;6.950;2022-10-13T02:22:04;10.05;98.45
64858;SHT30;51335;51.148;6.950;2022-10-13T02:22:39;10.08;98.38
64858;SHT30;51335;51.148;6.950;2022-10-13T02:23:13;10.02;98.35
64858;SHT30;51335;51.148;6.950;2022-10-13T02:23:44;10.08;98.40
64858;SHT30;51335;51.148;6.950;2022-10-13T02:24:15;10.10;98.25
64858;SHT30;51335;51.148;6.950;2022-10-13T02:24:45;10.07;98.18
64858;SHT30;51335;51.148;6.950;2022-10-13T02:25:15;10.12;98.14
64858;SHT30;51335;51.148;6.950;2022-10-13T02:25:46;10.14;98.04
64858;SHT30;51335;51.148;6.950;2022-10-13T02:26:17;10.10;98.04
64858;SHT30;51335;51.148;6.950;2022-10-13T02:26:49;10.10;98.12
64858;SHT30;51335;51.148;6.950;2022-10-13T02:27:21;10.08;98.14
64858;SHT30;51335;51.148;6.950;2022-10-13T02:27:52;10.12;98.16
64858;SHT30;51335;51.148;6.950;2022-10-13T02:28:22;10.11;98.17
64858;SHT30;51335;51.148;6.950;2022-10-13T02:28:53;10.11;98.15
64858;SHT30;51335;51.148;6.950;2022-10-13T02:29:23;10.08;98.19
64858;SHT30;51335;51.148;6.950;2022-10-13T02:29:56;10.10;98.23
64858;SHT30;51335;51.148;6.950;2022-10-13T02:30:29;10.08;98.22
64858;SHT30;51335;51.148;6.950;2022-10-13T02:30:59;10.11;98.28
64858;SHT30;51335;51.148;6.950;2022-10-13T02:31:29;10.08;98.27
64858;SHT30;51335;51.148;6.950;2022-10-13T02:32:00;10.11;98.33
64858;SHT30;51335;51.148;6.950;2022-10-13T02:32:30;10.17;98.28
64858;SHT30;51335;51.148;6.950;2022-10-13T02:33:01;10.17;98.16
64858;SHT30;51335;51.148;6.950;2022-10-13T02:33:32;10.18;98.20
64858;SHT30;51335;51.148;6.950;2022-10-13T02:34:03;10.19;98.14
64858;SHT30;51335;51.148;6.950;2022-10-13T02:34:34;10.21;98.10
64858;SHT30;51335;51.148;6.950;2022-10-13T02:35:04;10.22;98.06
64858;SHT30;51335;51.148;6.950;2022-10-13T02:35:35;10.22;98.09
64858;SHT30;51335;51.148;6.950;2022-10-13T02:36:05;10.19;98.01
64858;SHT30;51335;51.148;6.950;2022-10-13T02:36:36;10.24;98.02
64858;SHT30;51335;51.148;6.950;2022-10-13T02:37:06;10.21;98.02
64858;SHT30;51335;51.148;6.950;2022-10-13T02:37:36;10.22;98.04
64858;SHT30;51335;51.148;6.950;2022-10-13T02:38:07;10.24;98.03
64858;SHT30;51335;51.148;6.950;2022-10-13T02:38:37;10.24;98.09
64858;SHT30;51335;51.148;6.950;2022-10-13T02:39:09;10.22;98.11
64858;SHT30;51335;51.148;6.950;2022-10-13T02:39:39;10.22;98.14
64858;SHT30;51335;51.148;6.950;2022-10-13T02:40:10;10.21;98.17
64858;SHT30;51335;51.148;6.950;2022-10-13T02:40:41;10.22;98.16
64858;SHT30;51335;51.148;6.950;2022-10-13T02:41:11;10.24;98.16
64858;SHT30;51335;51.148;6.950;2022-10-13T02:41:41;10.24;98.22
64858;SHT30;51335;51.148;6.950;2022-10-13T02:42:11;10.22;98.27
64858;SHT30;51335;51.148;6.950;2022-10-13T02:42:42;10.25;98.18
64858;SHT30;51335;51.148;6.950;2022-10-13T02:43:12;10.28;98.15
64858;SHT30;51335;51.148;6.950;2022-10-13T02:43:42;10.28;98.08
64858;SHT30;51335;51.148;6.950;2022-10-13T02:44:13;10.28;98.06
64858;SHT30;51335;51.148;6.950;2022-10-13T02:44:43;10.29;98.01
64858;SHT30;51335;51.148;6.950;2022-10-13T02:45:13;10.25;98.00
64858;SHT30;51335;51.148;6.950;2022-10-13T02:45:43;10.25;98.01
64858;SHT30;51335;51.148;6.950;2022-10-13T02:46:14;10.28;98.01
64858;SHT30;51335;51.148;6.950;2022-10-13T02:46:44;10.31;97.94
64858;SHT30;51335;51.148;6.950;2022-10-13T02:47:14;10.29;97.79
64858;SHT30;51335;51.148;6.950;2022-10-13T02:47:45;10.28;97.78
64858;SHT30;51335;51.148;6.950;2022-10-13T02:48:15;10.28;97.76
64858;SHT30;51335;51.148;6.950;2022-10-13T02:48:45;10.27;97.79
64858;SHT30;51335;51.148;6.950;2022-10-13T02:49:15;10.24;97.72
64858;SHT30;51335;51.148;6.950;2022-10-13T02:49:46;10.24;97.78
64858;SHT30;51335;51.148;6.950;2022-10-13T02:50:16;10.21;97.78
64858;SHT30;51335;51.148;6.950;2022-10-13T02:50:46;10.24;97.76
64858;SHT30;51335;51.148;6.950;2022-10-13T02:51:17;10.24;97.66
64858;SHT30;51335;51.148;6.950;2022-10-13T02:51:47;10.22;97.68
64858;SHT30;51335;51.148;6.950;2022-10-13T02:52:17;10.21;97.76
64858;SHT30;51335;51.148;6.950;2022-10-13T02:52:47;10.21;97.76
64858;SHT30;51335;51.148;6.950;2022-10-13T02:53:18;10.21;97.75
64858;SHT30;51335;51.148;6.950;2022-10-13T02:53:48;10.19;97.70
64858;SHT30;51335;51.148;6.950;2022-10-13T02:54:18;10.17;97.76
64858;SHT30;51335;51.148;6.950;2022-10-13T02:54:49;10.24;97.84
64858;SHT30;51335;51.148;6.950;2022-10-13T02:55:19;10.22;97.70
64858;SHT30;51335;51.148;6.950;2022-10-13T02:55:49;10.19;97.65
64858;SHT30;51335;51.148;6.950;2022-10-13T02:56:19;10.21;97.69
64858;SHT30;51335;51.148;6.950;2022-10-13T02:56:50;10.21;97.74
64858;SHT30;51335;51.148;6.950;2022-10-13T02:57:20;10.24;97.71
64858;SHT30;51335;51.148;6.950;2022-10-13T02:57:50;10.22;97.70
64858;SHT30;51335;51.148;6.950;2022-10-13T02:58:20;10.21;97.68
64858;SHT30;51335;51.148;6.950;2022-10-13T02:58:51;10.24;97.73
64858;SHT30;51335;51.148;6.950;2022-10-13T02:59:21;10.28;97.77
64858;SHT30;51335;51.148;6.950;2022-10-13T02:59:51;10.25;97.59
64858;SHT30;51335;51.148;6.950;2022-10-13T03:00:22;10.22;97.65
64858;SHT30;51335;51.148;6.950;2022-10-13T03:00:52;10.21;97.69
64858;SHT30;51335;51.148;6.950;2022-10-13T03:01:22;10.17;97.57
64858;SHT30;51335;51.148;6.950;2022-10-13T03:01:52;10.12;97.62
64858;SHT30;51335;51.148;6.950;2022-10-13T03:02:25;10.12;97.68
64858;SHT30;51335;51.148;6.950;2022-10-13T03:02:55;10.11;97.76
64858;SHT30;51335;51.148;6.950;2022-10-13T03:03:25;10.08;97.79
64858;SHT30;51335;51.148;6.950;2022-10-13T03:03:56;10.11;97.86
64858;SHT30;51335;51.148;6.950;2022-10-13T03:04:26;10.08;97.86
64858;SHT30;51335;51.148;6.950;2022-10-13T03:04:56;10.08;97.90
64858;SHT30;51335;51.148;6.950;2022-10-13T03:05:26;10.07;97.93
64858;SHT30;51335;51.148;6.950;2022-10-13T03:05:57;10.04;97.88
64858;SHT30;51335;51.148;6.950;2022-10-13T03:06:27;10.02;97.93
64858;SHT30;51335;51.148;6.950;2022-10-13T03:06:57;10.04;97.91
64858;SHT30;51335;51.148;6.950;2022-10-13T03:07:27;10.01;97.91
64858;SHT30;51335;51.148;6.950;2022-10-13T03:07:58;10.00;97.95
64858;SHT30;51335;51.148;6.950;2022-10-13T03:08:30;9.98;97.97
64858;SHT30;51335;51.148;6.950;2022-10-13T03:09:00;10.00;98.06
64858;SHT30;51335;51.148;6.950;2022-10-13T03:09:31;10.00;98.07
64858;SHT30;51335;51.148;6.950;2022-10-13T03:10:01;10.00;98.12
64858;SHT30;51335;51.148;6.950;2022-10-13T03:10:31;9.98;98.18
64858;SHT30;51335;51.148;6.950;2022-10-13T03:11:02;9.98;98.23
64858;SHT30;51335;51.148;6.950;2022-10-13T03:11:32;10.02;98.29
64858;SHT30;51335;51.148;6.950;2022-10-13T03:12:02;9.97;98.25
64858;SHT30;51335;51.148;6.950;2022-10-13T03:12:33;9.97;98.24
64858;SHT30;51335;51.148;6.950;2022-10-13T03:13:03;9.97;98.32
64858;SHT30;51335;51.148;6.950;2022-10-13T03:13:35;9.98;98.33
64858;SHT30;51335;51.148;6.950;2022-10-13T03:14:05;9.98;98.39
64858;SHT30;51335;51.148;6.950;2022-10-13T03:14:36;10.00;98.43
64858;SHT30;51335;51.148;6.950;2022-10-13T03:15:07;10.00;98.41
64858;SHT30;51335;51.148;6.950;2022-10-13T03:15:37;9.98;98.46
64858;SHT30;51335;51.148;6.950;2022-10-13T03:16:07;10.02;98.58
64858;SHT30;51335;51.148;6.950;2022-10-13T03:16:37;10.00;98.51
64858;SHT30;51335;51.148;6.950;2022-10-13T03:17:08;9.98;98.48
64858;SHT30;51335;51.148;6.950;2022-10-13T03:17:38;9.98;98.46
64858;SHT30;51335;51.148;6.950;2022-10-13T03:18:08;10.01;98.46
64858;SHT30;51335;51.148;6.950;2022-10-13T03:18:39;10.04;98.40
64858;SHT30;51335;51.148;6.950;2022-10-13T03:19:09;10.05;98.21
64858;SHT30;51335;51.148;6.950;2022-10-13T03:19:40;10.05;98.16
64858;SHT30;51335;51.148;6.950;2022-10-13T03:20:10;10.04;98.14
64858;SHT30;51335;51.148;6.950;2022-10-13T03:20:40;10.04;98.11
64858;SHT30;51335;51.148;6.950;2022-10-13T03:21:11;10.04;98.11
64858;SHT30;51335;51.148;6.950;2022-10-13T03:21:41;10.01;98.33
64858;SHT30;51335;51.148;6.950;2022-10-13T03:22:11;10.01;98.26
64858;SHT30;51335;51.148;6.950;2022-10-13T03:22:41;10.00;98.34
64858;SHT30;51335;51.148;6.950;2022-10-13T03:23:12;9.98;98.35
64858;SHT30;51335;51.148;6.950;2022-10-13T03:23:42;10.01;98.36
64858;SHT30;51335;51.148;6.950;2022-10-13T03:24:12;10.00;98.31
64858;SHT30;51335;51.148;6.950;2022-10-13T03:24:42;9.98;98.29
64858;SHT30;51335;51.148;6.950;2022-10-13T03:25:13;10.01;98.34
64858;SHT30;51335;51.148;6.950;2022-10-13T03:25:43;9.97;98.46
64858;SHT30;51335;51.148;6.950;2022-10-13T03:26:13;9.97;98.64
64858;SHT30;51335;51.148;6.950;2022-10-13T03:26:43;10.01;98.58
64858;SHT30;51335;51.148;6.950;2022-10-13T03:27:14;10.00;98.54
64858;SHT30;51335;51.148;6.950;2022-10-13T03:27:44;9.98;98.56
64858;SHT30;51335;51.148;6.950;2022-10-13T03:28:14;10.00;98.60
64858;SHT30;51335;51.148;6.950;2022-10-13T03:28:48;10.02;98.62
64858;SHT30;51335;51.148;6.950;2022-10-13T03:29:18;10.01;98.53
64858;SHT30;51335;51.148;6.950;2022-10-13T03:29:49;10.00;98.47
64858;SHT30;51335;51.148;6.950;2022-10-13T03:30:19;10.00;98.44
64858;SHT30;51335;51.148;6.950;2022-10-13T03:30:58;10.01;98.38
64858;SHT30;51335;51.148;6.950;2022-10-13T03:31:29;10.02;98.37
64858;SHT30;51335;51.148;6.950;2022-10-13T03:31:59;10.00;98.30
64858;SHT30;51335;51.148;6.950;2022-10-13T03:32:29;9.98;98.24
64858;SHT30;51335;51.148;6.950;2022-10-13T03:33:00;9.94;98.36
64858;SHT30;51335;51.148;6.950;2022-10-13T03:33:30;9.97;98.51
64858;SHT30;51335;51.148;6.950;2022-10-13T03:34:01;9.97;98.63
64858;SHT30;51335;51.148;6.950;2022-10-13T03:34:31;9.97;98.61
64858;SHT30;51335;51.148;6.950;2022-10-13T03:35:02;9.94;98.55
64858;SHT30;51335;51.148;6.950;2022-10-13T03:35:32;9.95;98.50
64858;SHT30;51335;51.148;6.950;2022-10-13T03:36:04;9.97;98.60
64858;SHT30;51335;51.148;6.950;2022-10-13T03:36:34;9.93;98.71
64858;SHT30;51335;51.148;6.950;2022-10-13T03:37:05;9.94;98.73
64858;SHT30;51335;51.148;6.950;2022-10-13T03:37:35;9.95;98.68
64858;SHT30;51335;51.148;6.950;2022-10-13T03:38:05;9.97;98.60
64858;SHT30;51335;51.148;6.950;2022-10-13T03:38:36;9.98;98.52
64858;SHT30;51335;51.148;6.950;2022-10-13T03:39:06;9.98;98.70
64858;SHT30;51335;51.148;6.950;2022-10-13T03:39:36;9.94;98.68
64858;SHT30;51335;51.148;6.950;2022-10-13T03:40:07;9.93;98.61
64858;SHT30;51335;51.148;6.950;2022-10-13T03:40:38;9.94;98.60
64858;SHT30;51335;51.148;6.950;2022-10-13T03:41:13;9.98;98.55
64858;SHT30;51335;51.148;6.950;2022-10-13T03:41:44;9.91;98.51
64858;SHT30;51335;51.148;6.950;2022-10-13T03:42:14;9.91;98.58
64858;SHT30;51335;51.148;6.950;2022-10-13T03:42:44;9.91;98.58
64858;SHT30;51335;51.148;6.950;2022-10-13T03:43:14;9.91;98.61
64858;SHT30;51335;51.148;6.950;2022-10-13T03:43:45;9.88;98.66
64858;SHT30;51335;51.148;6.950;2022-10-13T03:44:15;9.91;98.71
64858;SHT30;51335;51.148;6.950;2022-10-13T03:44:46;9.91;98.75
64858;SHT30;51335;51.148;6.950;2022-10-13T03:45:17;9.90;98.77
64858;SHT30;51335;51.148;6.950;2022-10-13T03:45:59;9.90;98.79
64858;SHT30;51335;51.148;6.950;2022-10-13T03:46:30;9.87;98.86
64858;SHT30;51335;51.148;6.950;2022-10-13T03:47:00;9.87;98.93
64858;SHT30;51335;51.148;6.950;2022-10-13T03:47:30;9.88;98.89
64858;SHT30;51335;51.148;6.950;2022-10-13T03:48:01;9.84;98.89
64858;SHT30;51335;51.148;6.950;2022-10-13T03:48:32;9.84;99.00
64858;SHT30;51335;51.148;6.950;2022-10-13T03:49:03;9.86;98.99
64858;SHT30;51335;51.148;6.950;2022-10-13T03:49:33;9.86;99.00
64858;SHT30;51335;51.148;6.950;2022-10-13T03:50:04;9.90;99.05
64858;SHT30;51335;51.148;6.950;2022-10-13T03:50:36;9.90;98.89
64858;SHT30;51335;51.148;6.950;2022-10-13T03:51:08;9.86;98.81
64858;SHT30;51335;51.148;6.950;2022-10-13T03:51:39;9.94;98.78
64858;SHT30;51335;51.148;6.950;2022-10-13T03:52:09;9.93;98.67
64858;SHT30;51335;51.148;6.950;2022-10-13T03:52:39;9.94;98.66